Time;durP1;ratioP1;P1;durP2;ratioP2;P2;SDS_P1;SDS_P2;PMS_P1;PMS_P2;Temp;Humidity;BMP_temperature;BMP_pressure;BME280_temperature;BME280_humidity;BME280_pressure;Samples;Min_cycle;Max_cycle;Signal;HPM_P1;HPM_P2
2022/09/29 00:00:38;;;;;;;2.63;1.90;;;11.90;91.80;;;12.26;59.20;97206.94;4960083;28;119178;-69
2022/09/29 00:03:05;;;;;;;2.73;2.43;;;11.80;91.80;;;12.26;58.92;97206.16;4977144;28;124022;-69
2022/09/29 00:05:32;;;;;;;2.63;2.10;;;11.80;91.80;;;12.24;59.30;97200.97;4970600;28;123989;-69
2022/09/29 00:07:58;;;;;;;5.60;2.70;;;11.80;91.90;;;12.25;59.35;97207.28;4981352;28;119799;-69
2022/09/29 00:10:25;;;;;;;4.13;2.63;;;11.80;91.90;;;12.23;59.10;97207.69;4981959;28;119395;-69
2022/09/29 00:12:51;;;;;;;5.80;2.73;;;11.80;91.90;;;12.22;59.34;97203.28;4971924;28;124017;-69
2022/09/29 00:15:18;;;;;;;3.67;2.47;;;11.80;91.90;;;12.20;59.18;97194.56;4982368;28;124186;-69
2022/09/29 00:17:44;;;;;;;7.93;2.53;;;11.80;92.20;;;12.17;59.41;97200.81;4985554;28;119302;-69
2022/09/29 00:20:11;;;;;;;3.90;2.57;;;11.70;92.00;;;12.14;59.59;97193.22;4979921;28;119039;-69
2022/09/29 00:22:38;;;;;;;5.13;2.70;;;11.70;92.00;;;12.16;59.57;97190.91;4978941;28;123876;-69
2022/09/29 00:25:05;;;;;;;2.60;2.00;;;11.70;92.10;;;12.16;59.60;97193.66;4966420;28;122891;-69
2022/09/29 00:27:31;;;;;;;3.00;2.20;;;11.70;92.10;;;12.14;59.83;97190.44;4976306;28;119800;-69
2022/09/29 00:29:57;;;;;;;4.57;2.43;;;11.70;92.10;;;12.14;59.58;97187.69;4970377;28;120047;-69
2022/09/29 00:32:24;;;;;;;2.60;1.90;;;11.70;92.20;;;12.13;59.61;97186.09;4983234;28;123949;-69
2022/09/29 00:34:50;;;;;;;4.13;2.87;;;11.70;92.20;;;12.12;59.71;97190.03;4985922;28;123704;-69
2022/09/29 00:37:17;;;;;;;2.70;2.50;;;11.70;92.30;;;12.14;60.10;97187.69;4995859;28;119334;-69
2022/09/29 00:39:43;;;;;;;3.57;2.40;;;11.70;92.30;;;12.16;59.71;97191.69;4969970;28;118339;-69
2022/09/29 00:42:18;;;;;;;5.73;2.40;;;11.80;92.30;;;12.17;59.70;97198.06;4984165;28;124120;-69
2022/09/29 00:45:13;;;;;;;3.67;1.97;;;11.70;92.30;;;12.12;59.79;97185.28;4984569;28;124233;-69
2022/09/29 00:47:42;;;;;;;3.10;2.23;;;11.70;92.30;;;12.10;59.89;97181.28;4981243;28;118878;-69
2022/09/29 00:50:42;;;;;;;3.20;2.17;;;11.70;92.40;;;12.12;60.04;97190.84;4985051;28;119049;-69
2022/09/29 00:53:11;;;;;;;3.10;2.30;;;11.70;92.40;;;12.12;59.83;97174.22;4962305;28;123240;-69
2022/09/29 00:55:49;;;;;;;5.80;2.43;;;11.70;92.40;;;12.14;59.93;97176.59;4976197;28;123809;-69
2022/09/29 00:58:33;;;;;;;2.40;2.17;;;11.70;92.40;;;12.14;60.10;97177.44;4984025;28;118563;-69
2022/09/29 01:01:00;;;;;;;2.77;2.10;;;11.70;92.50;;;12.14;60.19;97180.22;4977845;28;118923;-69
2022/09/29 01:03:34;;;;;;;4.83;2.00;;;11.70;92.50;;;12.17;59.75;97181.44;4974171;28;124054;-69
2022/09/29 01:06:11;;;;;;;3.20;1.93;;;9.60;92.00;;;12.19;60.03;97175.53;4982209;28;122606;-69
2022/09/29 01:09:00;;;;;;;4.50;2.23;;;11.70;92.40;;;12.18;60.09;97171.97;4980663;28;119442;-69
2022/09/29 01:11:28;;;;;;;3.90;2.10;;;11.70;92.40;;;12.16;59.90;97169.53;4980796;28;119023;-69
2022/09/29 01:14:02;;;;;;;3.30;2.60;;;11.70;92.40;;;12.19;59.98;97175.53;4987616;28;124216;-69
2022/09/29 01:16:33;;;;;;;2.63;2.03;;;11.70;92.50;;;12.19;59.95;97162.47;4985248;28;123730;-69
2022/09/29 01:19:13;;;;;;;4.00;2.47;;;11.70;92.50;;;12.17;59.99;97175.91;4978252;28;120485;-69
2022/09/29 01:22:04;;;;;;;3.93;1.77;;;11.70;92.50;;;12.18;59.93;97166.44;4980768;28;119217;-69
2022/09/29 01:24:46;;;;;;;2.40;2.20;;;11.70;92.50;;;12.19;60.29;97165.25;4969953;28;123840;-69
2022/09/29 01:27:43;;;;;;;2.60;2.20;;;11.70;92.50;;;12.22;60.25;97163.72;4980752;28;123952;-69
2022/09/29 01:30:38;;;;;;;3.07;1.90;;;11.80;92.60;;;12.23;59.94;97163.38;4950000;28;119308;-69
2022/09/29 01:33:31;;;;;;;2.53;1.97;;;11.80;92.60;;;12.25;60.00;97165.75;4973497;28;119941;-69
2022/09/29 01:36:29;;;;;;;3.27;2.20;;;11.80;92.60;;;12.27;60.10;97174.50;4988112;28;124339;-69
2022/09/29 01:39:26;;;;;;;4.93;2.30;;;11.80;92.60;;;12.25;59.89;97174.91;4982255;28;124069;-69
2022/09/29 01:42:08;;;;;;;2.77;1.70;;;11.80;92.50;;;12.26;60.10;97168.19;4989613;28;119385;-69
2022/09/29 01:45:28;;;;;;;2.90;2.33;;;11.80;92.50;;;12.26;59.86;97159.88;4971582;28;118981;-69
2022/09/29 01:48:01;;;;;;;2.93;2.30;;;11.80;92.60;;;12.28;60.30;97165.84;4987063;28;124296;-69
2022/09/29 01:50:36;;;;;;;1.87;1.77;;;11.90;92.60;;;12.28;60.11;97165.84;4979048;28;124297;-69
2022/09/29 01:53:11;;;;;;;2.33;1.90;;;11.80;92.50;;;12.28;59.87;97165.84;4970192;28;119651;-70
2022/09/29 01:55:46;;;;;;;2.60;2.30;;;11.80;92.50;;;12.29;59.89;97170.22;4980085;28;118770;-70
2022/09/29 01:58:25;;;;;;;3.23;2.10;;;11.80;92.60;;;12.27;60.18;97175.31;4973153;28;124259;-69
2022/09/29 02:01:02;;;;;;;3.97;2.50;;;11.80;92.60;;;12.25;60.00;97177.66;4984500;28;123742;-69
2022/09/29 02:03:40;;;;;;;3.83;2.27;;;11.80;92.60;;;12.26;60.21;97179.25;4980928;28;119786;-69
2022/09/29 02:06:21;;;;;;;3.80;2.23;;;11.80;92.60;;;12.29;60.16;97177.72;4983076;28;118591;-69
2022/09/29 02:08:57;;;;;;;4.60;2.10;;;11.80;92.60;;;12.30;59.91;97180.13;4979129;28;125232;-69
2022/09/29 02:11:25;;;;;;;3.03;2.13;;;11.80;92.60;;;12.31;60.35;97181.75;4978389;28;124199;-69
2022/09/29 02:13:56;;;;;;;4.60;2.20;;;11.90;92.70;;;12.34;60.18;97181.00;4984237;28;120340;-70
2022/09/29 02:16:28;;;;;;;3.53;2.40;;;11.80;92.60;;;12.40;60.04;97180.72;4981390;28;120081;-69
2022/09/29 02:19:04;;;;;;;3.13;2.30;;;11.90;92.70;;;12.43;60.18;97182.75;4972691;28;124192;-69
2022/09/29 02:21:31;;;;;;;3.70;1.93;;;11.90;92.70;;;12.44;60.15;97184.34;4979047;28;124147;-69
2022/09/29 02:23:57;;;;;;;2.90;1.97;;;11.90;92.70;;;12.46;60.11;97182.03;4978670;28;119066;-69
2022/09/29 02:26:33;;;;;;;2.40;2.07;;;12.00;92.70;;;12.48;59.84;97180.50;4988532;28;119320;-69
2022/09/29 02:29:02;;;;;;;2.30;2.07;;;12.00;92.70;;;12.50;59.84;97191.22;4980988;28;124001;-69
2022/09/29 02:31:31;;;;;;;3.77;2.00;;;12.00;92.70;;;12.50;59.79;97189.25;4976996;28;124372;-69
2022/09/29 02:33:58;;;;;;;3.60;1.80;;;12.00;92.70;;;12.50;59.80;97189.25;4972077;28;118310;-69
2022/09/29 02:37:08;;;;;;;1.93;1.73;;;12.00;92.70;;;12.51;59.96;97187.28;4987923;28;118928;-69
2022/09/29 02:40:27;;;;;;;2.13;1.73;;;12.00;92.70;;;12.49;59.94;97193.19;4975699;28;123845;-69
2022/09/29 02:43:19;;;;;;;3.33;2.20;;;12.00;92.70;;;12.46;59.92;97190.34;4971265;28;123566;-69
2022/09/29 02:46:46;;;;;;;5.83;2.17;;;12.00;92.70;;;12.45;59.94;97180.44;4986698;28;119881;-69
2022/09/29 02:50:06;;;;;;;4.97;2.30;;;12.00;92.70;;;12.47;60.09;97184.44;4981741;28;118790;-69
2022/09/29 02:52:58;;;;;;;2.10;1.80;;;12.00;92.80;;;12.47;59.85;97183.66;4977682;28;124469;-69
2022/09/29 02:55:42;;;;;;;2.37;1.97;;;12.00;92.80;;;12.47;60.10;97183.66;4986516;28;124223;-69
2022/09/29 02:58:55;;;;;;;2.13;1.90;;;12.00;92.70;;;12.45;60.00;97169.34;4987120;28;119059;-69
2022/09/29 03:01:21;;;;;;;2.43;2.07;;;12.00;92.70;;;12.46;60.13;97176.47;4974097;28;118873;-69
2022/09/29 03:03:47;;;;;;;4.50;2.10;;;12.00;92.60;;;12.45;59.86;97175.69;4988575;28;123766;-69
2022/09/29 03:06:18;;;;;;;2.83;2.03;;;12.00;92.70;;;12.45;59.90;97170.16;4976050;28;123873;-69
2022/09/29 03:08:44;;;;;;;3.20;1.83;;;12.00;92.60;;;12.46;60.19;97159.88;4980615;28;120224;-69
2022/09/29 03:11:10;;;;;;;3.83;2.33;;;12.00;92.70;;;12.49;60.07;97159.13;4985894;28;119770;-69
2022/09/29 03:13:37;;;;;;;3.10;1.97;;;12.00;92.70;;;12.52;59.94;97152.84;4973762;28;124058;-69
2022/09/29 03:16:04;;;;;;;4.63;2.03;;;12.00;92.70;;;12.54;60.17;97158.84;4981228;28;124252;-69
2022/09/29 03:18:30;;;;;;;2.20;2.00;;;12.10;92.80;;;12.56;60.01;97153.75;4975824;28;119390;-69
2022/09/29 03:20:57;;;;;;;3.87;2.20;;;10.90;92.20;;;12.56;60.23;97156.50;4989100;28;119111;-69
2022/09/29 03:23:23;;;;;;;2.90;2.00;;;12.10;92.80;;;12.57;60.02;97156.16;4985756;28;124091;-69
2022/09/29 03:25:50;;;;;;;2.20;2.00;;;12.10;92.80;;;12.58;60.18;97157.75;4986843;28;124119;-69
2022/09/29 03:28:16;;;;;;;3.97;2.50;;;12.20;92.90;;;12.56;60.10;97159.28;4985751;28;119348;-69
2022/09/29 03:30:44;;;;;;;4.13;2.10;;;12.10;92.90;;;12.54;60.32;97161.59;4983769;28;118226;-69
2022/09/29 03:33:11;;;;;;;4.97;2.43;;;12.00;92.90;;;12.50;60.31;97149.66;4978534;28;124496;-69
2022/09/29 03:35:37;;;;;;;2.90;2.20;;;12.00;92.90;;;12.45;60.18;97148.00;4983318;28;124039;-69
2022/09/29 03:38:04;;;;;;;2.77;2.30;;;11.90;93.00;;;12.45;60.54;97153.53;4981144;28;119150;-69
2022/09/29 03:40:31;;;;;;;3.47;1.90;;;12.00;93.00;;;12.46;60.67;97148.78;4983568;28;118938;-69
2022/09/29 03:42:57;;;;;;;3.97;2.20;;;11.90;93.00;;;12.46;60.48;97144.03;4986762;28;124464;-69
2022/09/29 03:45:23;;;;;;;2.80;2.20;;;12.00;93.00;;;12.47;60.56;97145.66;4985063;28;123914;-69
2022/09/29 03:47:50;;;;;;;5.00;2.63;;;12.00;93.00;;;12.48;60.50;97140.91;4978770;28;119304;-69
2022/09/29 03:50:16;;;;;;;3.10;2.07;;;12.00;93.00;;;12.47;60.68;97134.59;4980657;28;119017;-69
2022/09/29 03:52:43;;;;;;;6.00;2.07;;;12.00;93.00;;;12.49;60.72;97139.75;4985347;28;123842;-69
2022/09/29 03:55:10;;;;;;;3.13;2.03;;;12.00;93.00;;;12.48;60.55;97143.69;4984958;28;123733;-69
2022/09/29 03:57:36;;;;;;;8.53;2.40;;;12.10;93.00;;;12.48;60.89;97135.38;4970484;28;119437;-69
2022/09/29 04:00:03;;;;;;;5.93;2.33;;;12.30;93.20;;;12.51;61.51;97142.94;4978002;28;120439;-69
2022/09/29 04:02:33;;;;;;;6.90;2.20;;;12.00;93.40;;;12.56;61.24;97143.44;4981397;28;124569;-69
2022/09/29 04:04:59;;;;;;;4.13;1.90;;;12.70;93.80;;;12.58;61.67;97143.09;4985576;28;123620;-69
2022/09/29 04:07:26;;;;;;;3.30;2.17;;;12.10;93.60;;;12.63;62.31;97145.56;4986187;28;120141;-69
2022/09/29 04:09:52;;;;;;;2.00;1.70;;;12.10;93.90;;;12.69;62.68;97149.66;4984011;28;119413;-69
2022/09/29 04:12:19;;;;;;;3.43;2.00;;;12.20;94.30;;;12.76;62.79;97146.19;4980712;28;126001;-69
2022/09/29 04:14:45;;;;;;;1.70;1.60;;;12.20;94.50;;;12.80;62.44;97142.31;4968935;28;124118;-69
2022/09/29 04:17:12;;;;;;;3.87;2.20;;;12.60;94.60;;;12.80;62.25;97147.06;4971903;28;119592;-69
2022/09/29 04:19:38;;;;;;;3.00;2.37;;;12.30;94.60;;;12.81;62.14;97135.63;4967720;28;118960;-70
2022/09/29 04:22:05;;;;;;;2.60;2.20;;;12.40;94.30;;;12.83;61.78;97144.34;4978341;28;124347;-69
2022/09/29 04:24:31;;;;;;;5.13;2.33;;;12.30;94.20;;;12.80;61.37;97136.00;4984463;28;124762;-69
2022/09/29 04:26:58;;;;;;;3.60;2.10;;;12.20;93.90;;;12.75;61.14;97147.38;4977226;28;119263;-69
2022/09/29 04:29:24;;;;;;;4.43;2.50;;;12.20;93.70;;;12.71;60.94;97143.75;4974401;28;119032;-69
2022/09/29 04:31:51;;;;;;;3.67;2.43;;;12.20;93.60;;;12.65;61.20;97146.00;4974987;28;124331;-69
2022/09/29 04:34:17;;;;;;;4.37;2.40;;;12.10;93.50;;;12.60;60.97;97143.53;4980840;28;122954;-69
2022/09/29 04:36:44;;;;;;;4.50;2.57;;;12.20;93.50;;;12.58;60.78;97138.34;4989719;28;119564;-69
2022/09/29 04:39:10;;;;;;;4.63;2.37;;;13.20;93.90;;;12.57;60.78;97141.47;4983285;28;119087;-69
2022/09/29 04:41:38;;;;;;;2.70;2.27;;;12.10;93.40;;;12.56;60.96;97137.13;4975366;28;124186;-69
2022/09/29 04:44:05;;;;;;;2.30;2.00;;;12.30;93.40;;;12.54;60.68;97139.44;4980266;28;122189;-69
2022/09/29 04:46:31;;;;;;;3.63;2.80;;;12.10;93.40;;;12.53;60.75;97146.16;4983874;28;120231;-69
2022/09/29 04:48:58;;;;;;;2.43;2.10;;;12.30;93.40;;;12.50;60.87;97150.47;4983487;28;119814;-69
2022/09/29 04:51:24;;;;;;;4.27;2.60;;;12.60;93.50;;;12.48;60.71;97154.78;4986112;28;124085;-69
2022/09/29 04:53:52;;;;;;;5.93;3.30;;;12.00;93.30;;;12.45;60.89;97158.28;4984004;28;123817;-69
2022/09/29 04:56:18;;;;;;;3.30;2.63;;;12.00;93.30;;;12.37;60.81;97160.88;4984806;28;118588;-69
2022/09/29 04:58:45;;;;;;;4.30;2.67;;;11.90;93.20;;;12.31;60.83;97162.34;4979312;28;118963;-69
2022/09/29 05:01:12;;;;;;;4.00;2.70;;;11.90;93.30;;;12.25;60.84;97174.91;4974427;28;125897;-69
2022/09/29 05:03:40;;;;;;;4.43;2.60;;;11.80;93.30;;;12.22;61.18;97172.81;4979104;28;123943;-69
2022/09/29 05:06:08;;;;;;;4.40;2.60;;;11.90;93.30;;;12.22;61.12;97172.03;4969077;28;118895;-69
2022/09/29 05:08:36;;;;;;;3.70;2.83;;;11.80;93.30;;;12.22;60.91;97172.81;4995773;28;118667;-69
2022/09/29 05:11:05;;;;;;;9.27;3.10;;;11.80;93.30;;;12.22;61.21;97174.81;4972206;28;124426;-68
2022/09/29 05:13:32;;;;;;;4.00;2.90;;;11.80;93.60;;;12.20;61.23;97180.72;4979096;28;122789;-69
2022/09/29 05:15:59;;;;;;;4.10;2.80;;;11.70;93.30;;;12.20;61.49;97186.25;4976407;28;118964;-69
2022/09/29 05:18:27;;;;;;;8.10;3.40;;;11.70;93.30;;;12.19;61.34;97184.63;4976918;28;120458;-69
2022/09/29 05:20:53;;;;;;;6.07;3.17;;;11.80;93.40;;;12.20;61.13;97193.75;4972790;28;124383;-69
2022/09/29 05:23:20;;;;;;;5.57;2.97;;;11.70;93.30;;;12.21;61.13;97189.81;4976546;28;123119;-70
2022/09/29 05:25:46;;;;;;;5.30;3.27;;;12.20;93.60;;;12.20;61.07;97186.25;4966281;28;119683;-69
2022/09/29 05:28:14;;;;;;;4.83;2.93;;;11.80;93.40;;;12.20;61.45;97197.34;4968181;28;119050;-69
2022/09/29 05:30:41;;;;;;;9.07;3.50;;;11.70;93.30;;;12.17;61.14;97195.28;4975437;28;124312;-69
2022/09/29 05:33:07;;;;;;;6.37;3.40;;;12.20;93.60;;;12.17;61.11;97195.28;4973676;28;123814;-69
2022/09/29 05:35:34;;;;;;;4.77;3.20;;;11.70;93.40;;;12.19;61.21;97195.72;4970623;28;119126;-70
2022/09/29 05:38:10;;;;;;;5.07;2.80;;;11.80;93.50;;;12.21;61.46;97192.59;4967315;28;119937;-69
2022/09/29 05:40:39;;;;;;;6.10;3.37;;;12.00;93.60;;;12.22;61.55;97192.22;4966633;28;124020;-69
2022/09/29 05:43:06;;;;;;;5.70;3.10;;;11.70;93.50;;;12.23;61.20;97190.25;4972932;28;123853;-69
2022/09/29 05:45:32;;;;;;;4.83;2.70;;;11.80;93.50;;;12.22;61.38;97194.97;4963436;28;119244;-69
2022/09/29 05:47:59;;;;;;;7.73;2.93;;;11.70;93.50;;;12.22;61.45;97188.66;4971757;28;119117;-69
2022/09/29 05:50:26;;;;;;;5.43;2.80;;;11.70;93.50;;;12.23;61.12;97191.06;4970966;28;123551;-69
2022/09/29 05:52:53;;;;;;;5.27;3.00;;;11.80;93.50;;;12.23;60.94;97193.84;4977632;28;122726;-70
2022/09/29 05:55:19;;;;;;;6.73;2.47;;;11.70;93.50;;;12.23;61.44;97188.28;4963029;28;119633;-69
2022/09/29 05:57:49;;;;;;;4.10;2.07;;;11.80;93.50;;;12.25;61.12;97187.91;4972610;28;119667;-69
2022/09/29 06:00:15;;;;;;;4.40;2.70;;;11.80;93.50;;;12.26;61.16;97206.94;4973351;28;124617;-69
2022/09/29 06:02:42;;;;;;;3.23;2.43;;;11.80;93.50;;;12.27;61.61;97196.66;4963520;28;123808;-70
2022/09/29 06:05:08;;;;;;;12.57;3.07;;;11.80;93.50;;;12.26;61.16;97195.88;4980724;28;119669;-70
2022/09/29 06:07:35;;;;;;;3.93;3.03;;;11.80;93.50;;;12.26;61.04;97192.31;4979023;28;118168;-70
2022/09/29 06:10:01;;;;;;;5.80;2.67;;;11.80;93.50;;;12.26;61.36;97195.06;4975240;28;124085;-70
2022/09/29 06:12:33;;;;;;;9.60;3.00;;;11.80;93.50;;;12.27;61.39;97191.94;4964014;28;123931;-69
2022/09/29 06:14:59;;;;;;;6.93;3.00;;;11.80;93.50;;;12.28;61.28;97192.75;4977335;28;119235;-68
2022/09/29 06:17:26;;;;;;;6.33;2.70;;;11.80;93.50;;;12.26;61.18;97198.63;4973443;28;119012;-69
2022/09/29 06:19:52;;;;;;;5.63;2.73;;;11.80;93.50;;;12.23;61.04;97196.59;4975732;28;123951;-68
2022/09/29 06:22:20;;;;;;;13.30;4.07;;;11.80;93.50;;;12.23;61.05;97201.34;4979665;28;124609;-68
2022/09/29 06:24:46;;;;;;;7.30;2.53;;;11.70;93.40;;;12.23;60.99;97206.88;4976278;28;120541;-69
2022/09/29 06:27:14;;;;;;;6.97;2.83;;;11.70;93.40;;;12.23;61.52;97210.44;4975828;28;120112;-69
2022/09/29 06:29:40;;;;;;;3.37;2.70;;;11.70;93.40;;;12.24;61.18;97197.41;4968559;28;124112;-69
2022/09/29 06:32:07;;;;;;;2.43;2.10;;;11.80;93.40;;;12.24;61.06;97205.69;4994317;28;122967;-69
2022/09/29 06:34:33;;;;;;;4.80;2.80;;;11.70;93.40;;;12.24;60.91;97212.03;4980809;28;119008;-69
2022/09/29 06:39:45;;;;;;;4.17;2.40;;;11.80;93.40;;;12.23;60.97;97229.81;4986200;28;124536;-68
2022/09/29 06:42:11;;;;;;;2.90;2.50;;;11.70;93.30;;;12.24;60.98;97230.63;4973474;28;124620;-68
2022/09/29 06:44:38;;;;;;;4.70;2.47;;;11.70;93.40;;;12.26;61.33;97231.88;4979627;28;119851;-68
2022/09/29 06:47:04;;;;;;;3.37;2.03;;;11.80;93.40;;;12.28;60.93;97237.06;4982686;28;118992;-68
2022/09/29 06:49:31;;;;;;;3.10;2.73;;;11.80;93.40;;;12.30;60.82;97223.63;4977600;28;125207;-69
2022/09/29 06:51:57;;;;;;;6.83;3.00;;;11.80;93.40;;;12.32;60.80;97226.84;4983225;28;124254;-68
2022/09/29 06:54:23;;;;;;;5.43;2.90;;;11.80;93.30;;;12.34;60.76;97221.75;4984178;28;119546;-69
2022/09/29 06:56:52;;;;;;;6.80;3.20;;;11.90;93.40;;;12.37;60.62;97229.34;4975345;28;118646;-68
2022/09/29 06:59:19;;;;;;;3.83;2.77;;;11.90;93.30;;;12.38;60.94;97231.75;4984452;28;124351;-67
2022/09/29 07:01:48;;;;;;;2.73;2.50;;;11.90;93.30;;;12.42;60.59;97226.28;4976216;28;123793;-68
2022/09/29 07:04:15;;;;;;;4.90;3.30;;;11.90;93.30;;;12.45;61.06;97224.75;4973845;28;119870;-68
2022/09/29 07:06:42;;;;;;;3.50;2.70;;;11.90;93.30;;;12.46;60.67;97220.81;4966688;28;117874;-68
2022/09/29 07:09:14;;;;;;;3.50;2.30;;;11.90;93.30;;;12.46;60.71;97221.59;4976571;28;124157;-69
2022/09/29 07:11:45;;;;;;;3.57;2.77;;;11.90;93.30;;;12.47;60.48;97230.75;4969848;28;124269;-69
2022/09/29 07:14:17;;;;;;;3.10;2.40;;;11.90;93.30;;;12.53;60.62;97232.03;4977790;28;120380;-69
2022/09/29 07:16:47;;;;;;;6.43;2.70;;;12.00;93.40;;;12.55;60.69;97235.25;4970993;28;120396;-69
2022/09/29 07:19:15;;;;;;;4.57;2.77;;;12.00;93.30;;;12.57;60.58;97230.97;4974491;28;124719;-69
2022/09/29 07:21:41;;;;;;;10.93;3.43;;;12.00;93.30;;;12.60;60.34;97226.66;4955884;28;124177;-69
2022/09/29 07:24:08;;;;;;;4.23;3.20;;;12.00;93.20;;;12.62;60.51;97229.84;4966274;28;119341;-69
2022/09/29 07:26:35;;;;;;;4.77;3.07;;;12.10;93.30;;;12.58;60.24;97229.00;4968436;28;118824;-69
2022/09/29 07:29:02;;;;;;;6.73;3.80;;;12.00;93.20;;;12.56;60.47;97231.31;4964389;28;123195;-68
2022/09/29 07:31:28;;;;;;;6.70;2.63;;;12.00;93.30;;;12.57;60.36;97227.38;4969486;28;123642;-69
2022/09/29 07:33:56;;;;;;;3.63;2.47;;;12.00;93.30;;;12.58;60.31;97234.53;4969867;28;119729;-69
2022/09/29 07:36:22;;;;;;;3.83;3.20;;;12.00;93.30;;;12.60;60.32;97234.97;4972958;28;118977;-69
2022/09/29 07:38:51;;;;;;;3.53;2.67;;;12.10;93.30;;;12.66;60.52;97241.03;4953624;28;125462;-68
2022/09/29 07:41:22;;;;;;;3.90;2.60;;;12.10;93.30;;;12.70;60.32;97239.13;4969534;28;123816;-68
2022/09/29 07:43:49;;;;;;;4.10;2.70;;;12.40;93.40;;;12.72;60.25;97240.34;4976110;28;118565;-69
2022/09/29 07:46:15;;;;;;;4.20;2.80;;;12.10;93.30;;;12.78;60.44;97238.09;4981414;28;119280;-69
2022/09/29 07:48:42;;;;;;;7.50;2.90;;;12.20;93.20;;;12.82;60.24;97239.78;4971559;28;124605;-69
2022/09/29 07:51:16;;;;;;;6.37;3.17;;;12.30;93.20;;;12.89;60.09;97244.63;4966814;28;124266;-68
2022/09/29 07:53:43;;;;;;;4.80;3.30;;;12.30;93.20;;;12.92;60.25;97243.94;4975910;28;120105;-69
2022/09/29 07:56:27;;;;;;;3.70;2.80;;;13.10;93.50;;;12.96;59.93;97242.00;4984741;28;118936;-69
2022/09/29 07:58:55;;;;;;;4.23;3.10;;;12.40;93.10;;;13.01;59.81;97252.00;4977134;28;124640;-67
2022/09/29 08:01:23;;;;;;;4.13;2.53;;;12.50;93.20;;;13.07;59.66;97250.53;4973777;28;124376;-68
2022/09/29 08:03:53;;;;;;;5.00;2.40;;;12.50;93.10;;;13.10;59.61;97247.03;4972611;28;119940;-71
2022/09/29 08:06:22;;;;;;;5.10;2.50;;;13.10;93.20;;;13.12;59.42;97241.94;4975782;28;119386;-68
2022/09/29 08:08:49;;;;;;;5.07;2.73;;;12.50;92.90;;;13.14;59.36;97241.56;4963452;28;124180;-67
2022/09/29 08:11:19;;;;;;;3.60;2.87;;;12.60;92.90;;;13.16;59.12;97247.53;4982088;28;123785;-68
2022/09/29 08:13:47;;;;;;;4.60;2.70;;;12.60;92.80;;;13.17;59.16;97247.16;4968268;28;118231;-68
2022/09/29 08:16:14;;;;;;;6.33;2.63;;;12.70;92.80;;;13.19;59.24;97242.06;4970701;28;119061;-68
2022/09/29 08:18:42;;;;;;;5.70;3.17;;;12.60;92.70;;;13.23;58.90;97242.91;4980367;28;124774;-68
2022/09/29 08:21:11;;;;;;;3.10;2.70;;;12.80;92.80;;;13.24;59.21;97244.53;4966679;28;124521;-69
2022/09/29 08:23:41;;;;;;;3.13;2.30;;;12.70;92.70;;;13.26;59.11;97253.31;4980968;28;119388;-69
2022/09/29 08:26:19;;;;;;;5.37;3.43;;;12.80;92.80;;;13.29;58.92;97243.44;4975619;28;118990;-69
2022/09/29 08:28:46;;;;;;;5.10;2.80;;;12.70;92.70;;;13.32;58.81;97255.78;4979579;28;123593;-69
2022/09/29 08:31:20;;;;;;;5.23;3.30;;;12.70;92.70;;;13.36;58.96;97253.88;4979455;28;125340;-69
2022/09/29 08:33:51;;;;;;;5.27;3.20;;;12.80;92.70;;;13.40;58.94;97257.50;4964199;28;119478;-69
2022/09/29 08:36:20;;;;;;;5.90;3.13;;;12.80;92.70;;;13.47;58.79;97257.66;4977533;28;119039;-69
2022/09/29 08:38:51;;;;;;;3.23;2.73;;;12.90;92.70;;;13.52;58.90;97254.56;4966598;28;124233;-69
2022/09/29 08:41:51;;;;;;;3.90;2.93;;;12.90;92.70;;;13.56;58.78;97262.94;4964589;28;123908;-69
2022/09/29 08:44:37;;;;;;;4.83;3.40;;;13.00;92.70;;;13.57;58.84;97259.81;4967265;28;119571;-67
2022/09/29 08:47:10;;;;;;;3.40;3.10;;;13.00;92.60;;;13.64;58.69;97262.69;4968873;28;119003;-67
2022/09/29 08:49:46;;;;;;;3.97;3.10;;;13.00;92.70;;;13.70;58.47;97258.44;4979342;28;123116;-68
2022/09/29 08:52:22;;;;;;;4.10;2.90;;;13.10;92.60;;;13.76;58.44;97263.69;4969445;28;123866;-67
2022/09/29 08:54:55;;;;;;;4.57;2.80;;;13.20;92.60;;;13.81;58.38;97268.91;4964550;28;120637;-68
2022/09/29 08:57:23;;;;;;;9.13;3.10;;;13.20;92.60;;;13.86;58.43;97274.16;4978178;28;120318;-67
2022/09/29 08:59:58;;;;;;;4.27;3.37;;;13.30;92.50;;;13.92;58.20;97279.03;4962855;28;124715;-66
2022/09/29 09:02:55;;;;;;;5.17;3.70;;;13.30;92.50;;;13.97;58.08;97280.69;4979702;28;124574;-66
2022/09/29 09:05:36;;;;;;;3.53;2.60;;;13.40;92.50;;;14.05;58.07;97271.31;4966161;28;119724;-67
2022/09/29 09:08:31;;;;;;;3.47;2.67;;;13.40;92.40;;;14.10;57.70;97271.00;4969476;28;119004;-67
2022/09/29 09:11:57;;;;;;;4.27;3.20;;;13.50;92.30;;;14.18;57.71;97271.09;4971423;28;124253;-68
2022/09/29 09:14:46;;;;;;;3.47;2.70;;;13.60;92.30;;;14.26;57.52;97272.78;4936360;28;122815;-68
2022/09/29 09:17:44;;;;;;;4.13;2.77;;;13.60;92.20;;;14.31;57.52;97278.81;4971558;28;120585;-68
2022/09/29 09:20:34;;;;;;;3.77;2.93;;;13.70;92.20;;;14.35;57.15;97285.25;4973397;28;119655;-67
2022/09/29 09:23:20;;;;;;;3.90;2.77;;;13.80;92.00;;;14.38;57.16;97280.91;4967924;28;124572;-68
2022/09/29 09:25:57;;;;;;;4.80;2.80;;;13.90;92.00;;;14.44;56.85;97290.53;4974377;28;124867;-67
2022/09/29 09:28:32;;;;;;;4.00;2.97;;;13.80;91.80;;;14.47;56.74;97298.09;4972725;28;119267;-67
2022/09/29 09:31:27;;;;;;;4.20;2.73;;;13.90;91.80;;;14.51;56.26;97296.19;4977917;28;119090;-67
2022/09/29 09:34:04;;;;;;;7.40;3.20;;;14.00;91.70;;;14.53;56.46;97295.84;4970591;28;123781;-67
2022/09/29 09:36:38;;;;;;;4.30;2.53;;;14.00;91.60;;;14.58;56.47;97292.72;4986884;28;123422;-68
2022/09/29 09:39:31;;;;;;;3.33;2.70;;;14.00;91.50;;;14.62;56.39;97299.16;4974100;28;118448;-69
2022/09/29 09:42:05;;;;;;;6.80;2.70;;;14.10;91.50;;;14.66;56.02;97293.63;4975538;28;118743;-67
2022/09/29 09:44:42;;;;;;;4.63;3.00;;;14.10;91.40;;;14.69;56.17;97299.22;4965703;28;124907;-68
2022/09/29 09:47:30;;;;;;;6.10;2.90;;;14.10;91.30;;;14.69;55.85;97299.22;4963706;28;124008;-68
2022/09/29 09:50:03;;;;;;;6.80;3.00;;;14.10;91.20;;;14.71;55.78;97296.09;4967330;28;120332;-68
2022/09/29 09:52:47;;;;;;;3.47;2.23;;;14.20;91.30;;;14.74;55.78;97287.78;4968101;28;119855;-67
2022/09/29 09:55:23;;;;;;;5.40;3.97;;;14.20;91.20;;;14.80;55.79;97291.84;4974329;28;124440;-67
2022/09/29 09:58:17;;;;;;;3.67;2.40;;;14.20;91.20;;;14.86;55.71;97292.31;4973782;28;122981;-68
2022/09/29 10:00:55;;;;;;;4.60;2.83;;;14.30;91.20;;;14.94;55.12;97284.88;4978357;28;118579;-68
2022/09/29 10:03:22;;;;;;;2.70;2.10;;;14.30;91.10;;;14.99;55.17;97290.91;4971957;28;119467;-68
2022/09/29 10:05:49;;;;;;;4.20;2.33;;;14.40;90.90;;;15.02;54.75;97284.56;4976432;28;124504;-66
2022/09/29 10:08:37;;;;;;;2.17;1.70;;;14.50;90.80;;;15.09;54.65;97297.75;4973987;28;123857;-68
2022/09/29 10:11:23;;;;;;;3.10;2.07;;;14.50;90.60;;;15.15;54.43;97281.53;4973442;28;119234;-67
2022/09/29 10:14:02;;;;;;;3.87;2.13;;;14.60;90.60;;;15.20;53.97;97289.53;4979841;28;119096;-68
2022/09/29 10:16:41;;;;;;;3.17;2.10;;;14.70;90.40;;;15.25;53.74;97291.97;4974260;28;124522;-68
2022/09/29 10:19:09;;;;;;;2.30;1.93;;;14.70;90.20;;;15.29;53.71;97298.41;4971751;28;124167;-67
2022/09/29 10:21:39;;;;;;;4.63;2.60;;;14.70;90.10;;;15.32;53.31;97291.28;4978022;28;119758;-67
2022/09/29 10:24:26;;;;;;;3.83;2.40;;;14.70;90.00;;;15.33;53.31;97288.09;4968460;28;119096;-67
2022/09/29 10:26:56;;;;;;;2.40;1.83;;;14.80;89.90;;;15.39;53.34;97286.59;4978179;28;123819;-67
2022/09/29 10:29:41;;;;;;;5.33;2.37;;;14.80;90.00;;;15.47;53.23;97295.78;4977942;28;122865;-65
2022/09/29 10:32:23;;;;;;;2.70;2.00;;;14.90;90.00;;;15.55;53.31;97291.09;4967977;28;119866;-66
2022/09/29 10:35:20;;;;;;;2.87;2.30;;;14.90;89.90;;;15.63;53.36;97279.66;4982326;28;118777;-69
2022/09/29 10:38:17;;;;;;;5.40;3.23;;;15.00;90.00;;;15.77;53.42;97289.34;4976094;28;125026;-66
2022/09/29 10:41:13;;;;;;;4.80;2.80;;;15.10;90.10;;;15.96;53.33;97282.75;4971304;28;124833;-66